sensor_id;sensor_type;location;lat;lon;timestamp;temperature;humidity
45785;DHT22;31489;51.404;5.474;2023-04-15T00:01:24;13.60;54.20
45785;DHT22;31489;51.404;5.474;2023-04-15T00:03:51;13.50;54.20
45785;DHT22;31489;51.404;5.474;2023-04-15T00:06:17;13.50;54.40
45785;DHT22;31489;51.404;5.474;2023-04-15T00:08:44;13.40;54.30
45785;DHT22;31489;51.404;5.474;2023-04-15T00:11:10;13.40;54.40
45785;DHT22;31489;51.404;5.474;2023-04-15T00:13:35;13.40;54.50
45785;DHT22;31489;51.404;5.474;2023-04-15T00:16:01;13.30;54.50
45785;DHT22;31489;51.404;5.474;2023-04-15T00:18:27;13.30;54.60
45785;DHT22;31489;51.404;5.474;2023-04-15T00:20:54;13.30;54.70
45785;DHT22;31489;51.404;5.474;2023-04-15T00:23:19;13.30;54.80
45785;DHT22;31489;51.404;5.474;2023-04-15T00:25:45;13.20;54.70
45785;DHT22;31489;51.404;5.474;2023-04-15T00:28:11;13.20;54.80
45785;DHT22;31489;51.404;5.474;2023-04-15T00:30:36;13.20;54.80
45785;DHT22;31489;51.404;5.474;2023-04-15T00:33:02;13.20;54.90
45785;DHT22;31489;51.404;5.474;2023-04-15T00:35:28;13.20;54.90
45785;DHT22;31489;51.404;5.474;2023-04-15T00:37:57;13.10;55.00
45785;DHT22;31489;51.404;5.474;2023-04-15T00:40:22;13.10;55.10
45785;DHT22;31489;51.404;5.474;2023-04-15T00:42:49;13.10;55.10
45785;DHT22;31489;51.404;5.474;2023-04-15T00:45:15;13.20;55.20
45785;DHT22;31489;51.404;5.474;2023-04-15T00:47:42;13.10;55.20
45785;DHT22;31489;51.404;5.474;2023-04-15T00:50:09;13.10;55.20
45785;DHT22;31489;51.404;5.474;2023-04-15T00:52:34;13.10;55.30
45785;DHT22;31489;51.404;5.474;2023-04-15T00:55:00;13.10;55.40
45785;DHT22;31489;51.404;5.474;2023-04-15T00:57:27;13.10;55.50
45785;DHT22;31489;51.404;5.474;2023-04-15T00:59:54;13.10;55.50
45785;DHT22;31489;51.404;5.474;2023-04-15T01:02:21;13.10;55.50
45785;DHT22;31489;51.404;5.474;2023-04-15T01:04:47;13.00;55.50
45785;DHT22;31489;51.404;5.474;2023-04-15T01:07:13;13.00;55.60
45785;DHT22;31489;51.404;5.474;2023-04-15T01:09:39;13.00;55.70
45785;DHT22;31489;51.404;5.474;2023-04-15T01:12:05;13.00;55.90
45785;DHT22;31489;51.404;5.474;2023-04-15T01:14:31;13.00;56.00
45785;DHT22;31489;51.404;5.474;2023-04-15T01:16:57;13.00;56.00
45785;DHT22;31489;51.404;5.474;2023-04-15T01:19:23;12.90;56.00
45785;DHT22;31489;51.404;5.474;2023-04-15T01:21:49;12.90;56.10
45785;DHT22;31489;51.404;5.474;2023-04-15T01:24:17;12.90;56.00
45785;DHT22;31489;51.404;5.474;2023-04-15T01:26:42;12.90;56.10
45785;DHT22;31489;51.404;5.474;2023-04-15T01:29:08;12.90;56.10
45785;DHT22;31489;51.404;5.474;2023-04-15T01:31:34;12.90;56.20
45785;DHT22;31489;51.404;5.474;2023-04-15T01:33:59;12.90;56.10
45785;DHT22;31489;51.404;5.474;2023-04-15T01:36:25;12.80;56.20
45785;DHT22;31489;51.404;5.474;2023-04-15T01:38:51;12.80;56.20
45785;DHT22;31489;51.404;5.474;2023-04-15T01:41:24;12.80;56.20
45785;DHT22;31489;51.404;5.474;2023-04-15T01:43:51;12.80;56.20
45785;DHT22;31489;51.404;5.474;2023-04-15T01:46:16;12.80;56.30
45785;DHT22;31489;51.404;5.474;2023-04-15T01:48:42;12.80;56.30
45785;DHT22;31489;51.404;5.474;2023-04-15T01:51:08;12.80;56.40
45785;DHT22;31489;51.404;5.474;2023-04-15T01:53:33;12.70;56.40
45785;DHT22;31489;51.404;5.474;2023-04-15T01:55:59;12.70;56.50
45785;DHT22;31489;51.404;5.474;2023-04-15T01:58:25;12.70;56.60
45785;DHT22;31489;51.404;5.474;2023-04-15T02:00:51;12.70;56.60
45785;DHT22;31489;51.404;5.474;2023-04-15T02:03:18;12.70;56.70
45785;DHT22;31489;51.404;5.474;2023-04-15T02:05:43;12.60;56.60
45785;DHT22;31489;51.404;5.474;2023-04-15T02:08:09;12.60;56.70
45785;DHT22;31489;51.404;5.474;2023-04-15T02:10:35;12.50;56.70
45785;DHT22;31489;51.404;5.474;2023-04-15T02:13:01;12.50;56.70
45785;DHT22;31489;51.404;5.474;2023-04-15T02:15:26;12.50;56.80
45785;DHT22;31489;51.404;5.474;2023-04-15T02:17:52;12.50;56.80
45785;DHT22;31489;51.404;5.474;2023-04-15T02:20:20;12.50;57.00
45785;DHT22;31489;51.404;5.474;2023-04-15T02:22:46;12.40;57.00
45785;DHT22;31489;51.404;5.474;2023-04-15T02:25:13;12.40;57.00
45785;DHT22;31489;51.404;5.474;2023-04-15T02:27:38;12.40;57.20
45785;DHT22;31489;51.404;5.474;2023-04-15T02:30:04;12.30;57.20
45785;DHT22;31489;51.404;5.474;2023-04-15T02:32:31;12.30;57.30
45785;DHT22;31489;51.404;5.474;2023-04-15T02:35:01;12.30;57.40
45785;DHT22;31489;51.404;5.474;2023-04-15T02:37:28;12.30;57.40
45785;DHT22;31489;51.404;5.474;2023-04-15T02:39:55;12.30;57.40
45785;DHT22;31489;51.404;5.474;2023-04-15T02:42:21;12.30;57.50
45785;DHT22;31489;51.404;5.474;2023-04-15T02:44:46;12.20;57.50
45785;DHT22;31489;51.404;5.474;2023-04-15T02:47:12;12.20;57.60
45785;DHT22;31489;51.404;5.474;2023-04-15T02:49:38;12.20;57.50
45785;DHT22;31489;51.404;5.474;2023-04-15T02:52:04;12.20;57.50
45785;DHT22;31489;51.404;5.474;2023-04-15T02:54:30;12.20;57.50
45785;DHT22;31489;51.404;5.474;2023-04-15T02:56:58;12.20;57.60
45785;DHT22;31489;51.404;5.474;2023-04-15T02:59:24;12.20;57.60
45785;DHT22;31489;51.404;5.474;2023-04-15T03:01:49;12.10;57.50
45785;DHT22;31489;51.404;5.474;2023-04-15T03:04:15;12.10;57.50
45785;DHT22;31489;51.404;5.474;2023-04-15T03:06:41;12.00;57.60
45785;DHT22;31489;51.404;5.474;2023-04-15T03:09:06;12.10;57.60
45785;DHT22;31489;51.404;5.474;2023-04-15T03:11:32;12.00;57.70
45785;DHT22;31489;51.404;5.474;2023-04-15T03:13:58;12.00;57.70
45785;DHT22;31489;51.404;5.474;2023-04-15T03:16:24;12.00;57.70
45785;DHT22;31489;51.404;5.474;2023-04-15T03:18:50;11.90;57.70
45785;DHT22;31489;51.404;5.474;2023-04-15T03:21:15;11.90;57.80
45785;DHT22;31489;51.404;5.474;2023-04-15T03:23:41;11.90;57.80
45785;DHT22;31489;51.404;5.474;2023-04-15T03:26:06;11.90;58.00
45785;DHT22;31489;51.404;5.474;2023-04-15T03:28:32;11.80;57.90
45785;DHT22;31489;51.404;5.474;2023-04-15T03:30:58;11.80;58.00
45785;DHT22;31489;51.404;5.474;2023-04-15T03:33:24;11.80;58.20
45785;DHT22;31489;51.404;5.474;2023-04-15T03:35:51;11.80;58.30
45785;DHT22;31489;51.404;5.474;2023-04-15T03:38:17;11.80;58.50
45785;DHT22;31489;51.404;5.474;2023-04-15T03:40:43;11.70;58.40
45785;DHT22;31489;51.404;5.474;2023-04-15T03:43:08;11.70;58.40
45785;DHT22;31489;51.404;5.474;2023-04-15T03:45:34;11.70;58.40
45785;DHT22;31489;51.404;5.474;2023-04-15T03:48:00;11.70;58.50
45785;DHT22;31489;51.404;5.474;2023-04-15T03:50:25;11.70;58.50
45785;DHT22;31489;51.404;5.474;2023-04-15T03:52:52;11.70;58.50
45785;DHT22;31489;51.404;5.474;2023-04-15T03:55:17;11.70;58.60
45785;DHT22;31489;51.404;5.474;2023-04-15T03:57:44;11.60;58.60
45785;DHT22;31489;51.404;5.474;2023-04-15T04:00:10;11.60;58.70
45785;DHT22;31489;51.404;5.474;2023-04-15T04:02:35;11.60;58.80
45785;DHT22;31489;51.404;5.474;2023-04-15T04:05:01;11.60;58.80
45785;DHT22;31489;51.404;5.474;2023-04-15T04:07:27;11.50;58.80
45785;DHT22;31489;51.404;5.474;2023-04-15T04:09:52;11.60;58.90
45785;DHT22;31489;51.404;5.474;2023-04-15T04:12:18;11.60;59.00
45785;DHT22;31489;51.404;5.474;2023-04-15T04:14:44;11.50;59.00
45785;DHT22;31489;51.404;5.474;2023-04-15T04:17:10;11.50;59.10
45785;DHT22;31489;51.404;5.474;2023-04-15T04:19:35;11.50;59.20
45785;DHT22;31489;51.404;5.474;2023-04-15T04:22:01;11.50;59.20
45785;DHT22;31489;51.404;5.474;2023-04-15T04:24:27;11.50;59.20
45785;DHT22;31489;51.404;5.474;2023-04-15T04:26:52;11.60;59.30
45785;DHT22;31489;51.404;5.474;2023-04-15T04:29:18;11.50;59.30
45785;DHT22;31489;51.404;5.474;2023-04-15T04:31:44;11.50;59.30
45785;DHT22;31489;51.404;5.474;2023-04-15T04:34:10;11.50;59.40
45785;DHT22;31489;51.404;5.474;2023-04-15T04:36:35;11.50;59.50
45785;DHT22;31489;51.404;5.474;2023-04-15T04:39:01;11.50;59.40
45785;DHT22;31489;51.404;5.474;2023-04-15T04:41:27;11.50;59.40
45785;DHT22;31489;51.404;5.474;2023-04-15T04:43:52;11.50;59.50
45785;DHT22;31489;51.404;5.474;2023-04-15T04:46:18;11.50;59.60
45785;DHT22;31489;51.404;5.474;2023-04-15T04:48:44;11.50;59.60
45785;DHT22;31489;51.404;5.474;2023-04-15T04:51:10;11.50;59.70
45785;DHT22;31489;51.404;5.474;2023-04-15T04:53:36;11.50;59.70
45785;DHT22;31489;51.404;5.474;2023-04-15T04:56:02;11.50;59.80
45785;DHT22;31489;51.404;5.474;2023-04-15T04:58:28;11.40;59.80
45785;DHT22;31489;51.404;5.474;2023-04-15T05:00:53;11.40;59.80
45785;DHT22;31489;51.404;5.474;2023-04-15T05:03:19;11.40;59.80
45785;DHT22;31489;51.404;5.474;2023-04-15T05:05:45;11.40;60.00
45785;DHT22;31489;51.404;5.474;2023-04-15T05:08:10;11.40;60.00
45785;DHT22;31489;51.404;5.474;2023-04-15T05:10:36;11.40;60.20
45785;DHT22;31489;51.404;5.474;2023-04-15T05:13:02;11.40;60.20
45785;DHT22;31489;51.404;5.474;2023-04-15T05:15:27;11.30;60.20
45785;DHT22;31489;51.404;5.474;2023-04-15T05:17:53;11.40;60.30
45785;DHT22;31489;51.404;5.474;2023-04-15T05:20:19;11.40;60.40
45785;DHT22;31489;51.404;5.474;2023-04-15T05:22:45;11.40;60.40
45785;DHT22;31489;51.404;5.474;2023-04-15T05:25:10;11.40;60.60
45785;DHT22;31489;51.404;5.474;2023-04-15T05:27:36;11.30;60.50
45785;DHT22;31489;51.404;5.474;2023-04-15T05:30:02;11.30;60.70
45785;DHT22;31489;51.404;5.474;2023-04-15T05:32:28;11.30;60.80
45785;DHT22;31489;51.404;5.474;2023-04-15T05:34:53;11.30;60.80
45785;DHT22;31489;51.404;5.474;2023-04-15T05:37:19;11.30;60.90
45785;DHT22;31489;51.404;5.474;2023-04-15T05:39:47;11.30;61.10
45785;DHT22;31489;51.404;5.474;2023-04-15T05:42:13;11.30;61.10
45785;DHT22;31489;51.404;5.474;2023-04-15T05:44:39;11.30;61.20
45785;DHT22;31489;51.404;5.474;2023-04-15T05:47:04;11.30;61.20
45785;DHT22;31489;51.404;5.474;2023-04-15T05:49:31;11.30;61.30
45785;DHT22;31489;51.404;5.474;2023-04-15T05:51:57;11.30;61.30
45785;DHT22;31489;51.404;5.474;2023-04-15T05:54:22;11.30;61.40
45785;DHT22;31489;51.404;5.474;2023-04-15T05:56:48;11.40;61.50
45785;DHT22;31489;51.404;5.474;2023-04-15T05:59:14;11.30;61.60
45785;DHT22;31489;51.404;5.474;2023-04-15T06:01:40;11.30;62.30
45785;DHT22;31489;51.404;5.474;2023-04-15T06:04:05;11.40;61.70
45785;DHT22;31489;51.404;5.474;2023-04-15T06:06:31;11.30;61.80
45785;DHT22;31489;51.404;5.474;2023-04-15T06:08:57;11.30;61.90
45785;DHT22;31489;51.404;5.474;2023-04-15T06:11:22;11.30;62.00
45785;DHT22;31489;51.404;5.474;2023-04-15T06:13:48;11.30;62.20
45785;DHT22;31489;51.404;5.474;2023-04-15T06:16:14;11.40;62.30
45785;DHT22;31489;51.404;5.474;2023-04-15T06:18:40;11.40;62.50
45785;DHT22;31489;51.404;5.474;2023-04-15T06:21:05;11.40;62.60
45785;DHT22;31489;51.404;5.474;2023-04-15T06:23:34;11.50;62.80
45785;DHT22;31489;51.404;5.474;2023-04-15T06:26:00;11.50;63.00
45785;DHT22;31489;51.404;5.474;2023-04-15T06:28:25;11.50;63.00
45785;DHT22;31489;51.404;5.474;2023-04-15T06:30:52;11.50;63.00
45785;DHT22;31489;51.404;5.474;2023-04-15T06:33:18;11.60;63.10
45785;DHT22;31489;51.404;5.474;2023-04-15T06:35:43;11.60;63.10
45785;DHT22;31489;51.404;5.474;2023-04-15T06:38:09;11.60;63.10
45785;DHT22;31489;51.404;5.474;2023-04-15T06:40:35;11.70;63.20
45785;DHT22;31489;51.404;5.474;2023-04-15T06:43:01;11.70;63.20
45785;DHT22;31489;51.404;5.474;2023-04-15T06:45:26;11.80;63.10
45785;DHT22;31489;51.404;5.474;2023-04-15T06:47:52;11.80;63.10
45785;DHT22;31489;51.404;5.474;2023-04-15T06:50:17;11.80;63.00
45785;DHT22;31489;51.404;5.474;2023-04-15T06:52:43;11.80;63.10
45785;DHT22;31489;51.404;5.474;2023-04-15T06:55:09;11.90;63.10
45785;DHT22;31489;51.404;5.474;2023-04-15T06:57:35;11.90;63.10
45785;DHT22;31489;51.404;5.474;2023-04-15T07:00:01;11.90;63.10
45785;DHT22;31489;51.404;5.474;2023-04-15T07:02:26;12.00;63.20
45785;DHT22;31489;51.404;5.474;2023-04-15T07:04:52;12.00;63.30
45785;DHT22;31489;51.404;5.474;2023-04-15T07:07:17;12.00;63.30
45785;DHT22;31489;51.404;5.474;2023-04-15T07:09:43;12.10;63.30
45785;DHT22;31489;51.404;5.474;2023-04-15T07:12:09;12.10;63.30
45785;DHT22;31489;51.404;5.474;2023-04-15T07:14:35;12.20;63.40
45785;DHT22;31489;51.404;5.474;2023-04-15T07:17:01;12.20;63.40
45785;DHT22;31489;51.404;5.474;2023-04-15T07:19:27;12.20;63.30
45785;DHT22;31489;51.404;5.474;2023-04-15T07:21:53;12.30;63.40
45785;DHT22;31489;51.404;5.474;2023-04-15T07:24:18;12.30;63.30
45785;DHT22;31489;51.404;5.474;2023-04-15T07:26:45;12.40;63.40
45785;DHT22;31489;51.404;5.474;2023-04-15T07:29:10;12.40;63.40
45785;DHT22;31489;51.404;5.474;2023-04-15T07:31:36;12.50;63.40
45785;DHT22;31489;51.404;5.474;2023-04-15T07:34:02;12.50;64.20
45785;DHT22;31489;51.404;5.474;2023-04-15T07:36:29;12.50;63.70
45785;DHT22;31489;51.404;5.474;2023-04-15T07:38:56;12.60;63.60
45785;DHT22;31489;51.404;5.474;2023-04-15T07:41:22;12.70;63.70
45785;DHT22;31489;51.404;5.474;2023-04-15T07:43:48;12.70;63.80
45785;DHT22;31489;51.404;5.474;2023-04-15T07:46:14;12.80;63.60
45785;DHT22;31489;51.404;5.474;2023-04-15T07:48:39;12.80;63.80
45785;DHT22;31489;51.404;5.474;2023-04-15T07:51:06;12.90;63.90
45785;DHT22;31489;51.404;5.474;2023-04-15T07:53:32;12.90;63.80
45785;DHT22;31489;51.404;5.474;2023-04-15T07:55:58;13.00;63.70
45785;DHT22;31489;51.404;5.474;2023-04-15T07:58:23;13.10;63.60
45785;DHT22;31489;51.404;5.474;2023-04-15T08:00:49;13.10;63.80
45785;DHT22;31489;51.404;5.474;2023-04-15T08:03:15;13.20;63.60
45785;DHT22;31489;51.404;5.474;2023-04-15T08:05:40;13.30;63.50
45785;DHT22;31489;51.404;5.474;2023-04-15T08:08:06;13.30;63.30
45785;DHT22;31489;51.404;5.474;2023-04-15T08:10:32;13.40;63.20
45785;DHT22;31489;51.404;5.474;2023-04-15T08:12:58;13.50;63.20
45785;DHT22;31489;51.404;5.474;2023-04-15T08:15:24;13.50;63.00
45785;DHT22;31489;51.404;5.474;2023-04-15T08:17:50;13.60;62.70
45785;DHT22;31489;51.404;5.474;2023-04-15T08:20:15;13.70;62.70
45785;DHT22;31489;51.404;5.474;2023-04-15T08:22:41;13.70;62.50
45785;DHT22;31489;51.404;5.474;2023-04-15T08:25:07;13.80;62.30
45785;DHT22;31489;51.404;5.474;2023-04-15T08:27:33;13.90;62.10
45785;DHT22;31489;51.404;5.474;2023-04-15T08:29:59;13.90;62.10
45785;DHT22;31489;51.404;5.474;2023-04-15T08:32:25;14.00;62.10
45785;DHT22;31489;51.404;5.474;2023-04-15T08:34:51;14.00;62.10
45785;DHT22;31489;51.404;5.474;2023-04-15T08:37:17;14.10;62.00
45785;DHT22;31489;51.404;5.474;2023-04-15T08:39:43;14.10;62.10
45785;DHT22;31489;51.404;5.474;2023-04-15T08:42:16;14.20;62.60
45785;DHT22;31489;51.404;5.474;2023-04-15T08:44:42;14.20;62.20
45785;DHT22;31489;51.404;5.474;2023-04-15T08:47:12;14.30;62.40
45785;DHT22;31489;51.404;5.474;2023-04-15T08:49:41;14.40;62.10
45785;DHT22;31489;51.404;5.474;2023-04-15T08:52:08;14.50;61.80
45785;DHT22;31489;51.404;5.474;2023-04-15T08:54:34;14.60;62.00
45785;DHT22;31489;51.404;5.474;2023-04-15T08:57:00;14.70;61.90
45785;DHT22;31489;51.404;5.474;2023-04-15T08:59:28;14.70;61.80
45785;DHT22;31489;51.404;5.474;2023-04-15T09:01:55;14.80;61.70
45785;DHT22;31489;51.404;5.474;2023-04-15T09:04:21;14.90;61.80
45785;DHT22;31489;51.404;5.474;2023-04-15T09:06:47;15.00;61.30
45785;DHT22;31489;51.404;5.474;2023-04-15T09:09:12;15.10;61.00
45785;DHT22;31489;51.404;5.474;2023-04-15T09:11:41;15.10;60.60
45785;DHT22;31489;51.404;5.474;2023-04-15T09:14:07;15.20;60.20
45785;DHT22;31489;51.404;5.474;2023-04-15T09:17:02;15.20;60.10
45785;DHT22;31489;51.404;5.474;2023-04-15T09:19:29;15.30;59.10
45785;DHT22;31489;51.404;5.474;2023-04-15T09:21:56;15.40;59.60
45785;DHT22;31489;51.404;5.474;2023-04-15T09:24:22;15.40;59.50
45785;DHT22;31489;51.404;5.474;2023-04-15T09:26:51;15.40;59.30
45785;DHT22;31489;51.404;5.474;2023-04-15T09:29:17;15.50;58.60
45785;DHT22;31489;51.404;5.474;2023-04-15T09:31:43;15.50;58.90
45785;DHT22;31489;51.404;5.474;2023-04-15T09:34:09;15.50;58.80
45785;DHT22;31489;51.404;5.474;2023-04-15T09:36:54;15.50;58.80
45785;DHT22;31489;51.404;5.474;2023-04-15T09:39:21;15.60;58.60
45785;DHT22;31489;51.404;5.474;2023-04-15T09:41:55;15.60;58.80
45785;DHT22;31489;51.404;5.474;2023-04-15T09:44:28;15.70;58.60
45785;DHT22;31489;51.404;5.474;2023-04-15T09:46:53;15.80;58.80
45785;DHT22;31489;51.404;5.474;2023-04-15T09:49:19;15.90;58.70
45785;DHT22;31489;51.404;5.474;2023-04-15T09:51:47;15.90;58.20
45785;DHT22;31489;51.404;5.474;2023-04-15T09:54:18;16.00;58.10
45785;DHT22;31489;51.404;5.474;2023-04-15T09:56:45;16.00;57.80
45785;DHT22;31489;51.404;5.474;2023-04-15T09:59:11;16.10;58.60
45785;DHT22;31489;51.404;5.474;2023-04-15T10:01:37;16.20;58.60
45785;DHT22;31489;51.404;5.474;2023-04-15T10:04:05;16.30;58.10
45785;DHT22;31489;51.404;5.474;2023-04-15T10:06:31;16.30;58.10
45785;DHT22;31489;51.404;5.474;2023-04-15T10:08:58;16.40;58.00
45785;DHT22;31489;51.404;5.474;2023-04-15T10:11:24;16.50;57.60
45785;DHT22;31489;51.404;5.474;2023-04-15T10:13:50;16.60;57.60
45785;DHT22;31489;51.404;5.474;2023-04-15T10:16:19;16.70;57.20
45785;DHT22;31489;51.404;5.474;2023-04-15T10:18:47;16.80;56.60
45785;DHT22;31489;51.404;5.474;2023-04-15T10:21:14;16.90;56.70
45785;DHT22;31489;51.404;5.474;2023-04-15T10:23:44;17.00;57.20
45785;DHT22;31489;51.404;5.474;2023-04-15T10:26:11;17.00;57.00
45785;DHT22;31489;51.404;5.474;2023-04-15T10:28:37;17.10;57.00
45785;DHT22;31489;51.404;5.474;2023-04-15T10:31:04;17.30;57.30
45785;DHT22;31489;51.404;5.474;2023-04-15T10:33:30;17.50;56.90
45785;DHT22;31489;51.404;5.474;2023-04-15T10:35:59;17.70;57.40
45785;DHT22;31489;51.404;5.474;2023-04-15T10:38:43;18.00;58.00
45785;DHT22;31489;51.404;5.474;2023-04-15T10:41:14;18.40;56.60
45785;DHT22;31489;51.404;5.474;2023-04-15T10:44:02;18.90;57.30
45785;DHT22;31489;51.404;5.474;2023-04-15T10:46:41;19.40;55.90
45785;DHT22;31489;51.404;5.474;2023-04-15T10:49:12;19.80;54.00
45785;DHT22;31489;51.404;5.474;2023-04-15T10:51:43;20.20;55.00
45785;DHT22;31489;51.404;5.474;2023-04-15T10:54:30;20.60;54.20
45785;DHT22;31489;51.404;5.474;2023-04-15T10:59:34;21.30;52.00
45785;DHT22;31489;51.404;5.474;2023-04-15T11:02:07;21.60;52.80
45785;DHT22;31489;51.404;5.474;2023-04-15T11:07:37;22.30;50.30
45785;DHT22;31489;51.404;5.474;2023-04-15T11:12:39;22.90;47.80
45785;DHT22;31489;51.404;5.474;2023-04-15T11:15:41;23.10;49.10
45785;DHT22;31489;51.404;5.474;2023-04-15T11:20:38;23.50;46.90
45785;DHT22;31489;51.404;5.474;2023-04-15T11:23:07;23.70;47.60
45785;DHT22;31489;51.404;5.474;2023-04-15T11:25:34;23.80;47.30
45785;DHT22;31489;51.404;5.474;2023-04-15T11:28:02;24.00;46.70
45785;DHT22;31489;51.404;5.474;2023-04-15T11:30:30;24.10;47.00
45785;DHT22;31489;51.404;5.474;2023-04-15T11:33:04;24.30;46.50
45785;DHT22;31489;51.404;5.474;2023-04-15T11:35:30;24.50;44.90
45785;DHT22;31489;51.404;5.474;2023-04-15T11:37:57;24.70;44.60
45785;DHT22;31489;51.404;5.474;2023-04-15T11:40:27;24.80;43.50
45785;DHT22;31489;51.404;5.474;2023-04-15T11:43:06;24.90;42.00
45785;DHT22;31489;51.404;5.474;2023-04-15T11:45:32;25.00;42.30
45785;DHT22;31489;51.404;5.474;2023-04-15T11:48:05;25.10;43.60
45785;DHT22;31489;51.404;5.474;2023-04-15T11:50:32;25.10;42.40
45785;DHT22;31489;51.404;5.474;2023-04-15T11:53:04;25.20;42.80
45785;DHT22;31489;51.404;5.474;2023-04-15T11:55:31;25.20;40.70
45785;DHT22;31489;51.404;5.474;2023-04-15T11:58:09;25.10;41.10
45785;DHT22;31489;51.404;5.474;2023-04-15T12:00:35;25.10;43.30
45785;DHT22;31489;51.404;5.474;2023-04-15T12:03:21;24.90;42.10
45785;DHT22;31489;51.404;5.474;2023-04-15T12:06:10;24.60;41.40
45785;DHT22;31489;51.404;5.474;2023-04-15T12:09:14;24.40;41.30
45785;DHT22;31489;51.404;5.474;2023-04-15T12:11:44;24.20;41.30
45785;DHT22;31489;51.404;5.474;2023-04-15T12:16:51;23.90;41.80
45785;DHT22;31489;51.404;5.474;2023-04-15T12:19:28;23.70;41.60
45785;DHT22;31489;51.404;5.474;2023-04-15T12:21:58;23.60;41.20
45785;DHT22;31489;51.404;5.474;2023-04-15T12:24:24;23.60;41.00
45785;DHT22;31489;51.404;5.474;2023-04-15T12:26:55;23.60;41.50
45785;DHT22;31489;51.404;5.474;2023-04-15T12:29:28;23.50;41.70
45785;DHT22;31489;51.404;5.474;2023-04-15T12:32:05;23.40;42.30
45785;DHT22;31489;51.404;5.474;2023-04-15T12:37:03;23.40;42.20
45785;DHT22;31489;51.404;5.474;2023-04-15T12:39:30;23.50;42.80
45785;DHT22;31489;51.404;5.474;2023-04-15T12:41:57;23.40;42.70
45785;DHT22;31489;51.404;5.474;2023-04-15T12:44:25;23.40;42.70
45785;DHT22;31489;51.404;5.474;2023-04-15T12:46:51;23.40;42.30
45785;DHT22;31489;51.404;5.474;2023-04-15T12:49:18;23.20;42.10
45785;DHT22;31489;51.404;5.474;2023-04-15T12:51:48;23.20;42.50
45785;DHT22;31489;51.404;5.474;2023-04-15T12:54:15;23.20;42.80
45785;DHT22;31489;51.404;5.474;2023-04-15T12:56:42;23.20;42.80
45785;DHT22;31489;51.404;5.474;2023-04-15T12:59:07;23.20;43.90
45785;DHT22;31489;51.404;5.474;2023-04-15T13:01:33;23.30;42.80
45785;DHT22;31489;51.404;5.474;2023-04-15T13:03:59;23.30;42.70
45785;DHT22;31489;51.404;5.474;2023-04-15T13:06:25;23.40;42.40
45785;DHT22;31489;51.404;5.474;2023-04-15T13:08:51;23.30;42.20
45785;DHT22;31489;51.404;5.474;2023-04-15T13:11:19;23.30;42.70
45785;DHT22;31489;51.404;5.474;2023-04-15T13:13:47;23.40;42.00
45785;DHT22;31489;51.404;5.474;2023-04-15T13:16:13;23.30;41.40
45785;DHT22;31489;51.404;5.474;2023-04-15T13:18:40;23.30;41.70
45785;DHT22;31489;51.404;5.474;2023-04-15T13:21:06;23.20;41.90
45785;DHT22;31489;51.404;5.474;2023-04-15T13:23:32;23.20;42.10
45785;DHT22;31489;51.404;5.474;2023-04-15T13:25:58;23.20;42.30
45785;DHT22;31489;51.404;5.474;2023-04-15T13:28:24;23.10;42.30
45785;DHT22;31489;51.404;5.474;2023-04-15T13:30:49;23.10;41.80
45785;DHT22;31489;51.404;5.474;2023-04-15T13:33:16;23.00;42.40
45785;DHT22;31489;51.404;5.474;2023-04-15T13:35:41;23.10;42.00
45785;DHT22;31489;51.404;5.474;2023-04-15T13:38:07;23.00;42.50
45785;DHT22;31489;51.404;5.474;2023-04-15T13:40:32;23.10;42.80
45785;DHT22;31489;51.404;5.474;2023-04-15T13:42:58;23.20;42.40
45785;DHT22;31489;51.404;5.474;2023-04-15T13:45:24;23.20;42.00
45785;DHT22;31489;51.404;5.474;2023-04-15T13:47:50;23.20;41.60
45785;DHT22;31489;51.404;5.474;2023-04-15T13:50:16;23.20;41.50
45785;DHT22;31489;51.404;5.474;2023-04-15T13:52:42;23.20;41.70
45785;DHT22;31489;51.404;5.474;2023-04-15T13:55:07;23.10;41.70
45785;DHT22;31489;51.404;5.474;2023-04-15T13:57:33;23.10;41.50
45785;DHT22;31489;51.404;5.474;2023-04-15T13:59:59;23.10;41.70
45785;DHT22;31489;51.404;5.474;2023-04-15T14:02:24;23.20;42.10
45785;DHT22;31489;51.404;5.474;2023-04-15T14:04:50;23.10;41.50
45785;DHT22;31489;51.404;5.474;2023-04-15T14:07:16;23.20;41.80
45785;DHT22;31489;51.404;5.474;2023-04-15T14:09:42;23.20;42.40
45785;DHT22;31489;51.404;5.474;2023-04-15T14:12:09;23.30;41.70
45785;DHT22;31489;51.404;5.474;2023-04-15T14:14:35;23.40;42.20
45785;DHT22;31489;51.404;5.474;2023-04-15T14:17:02;23.40;41.30
45785;DHT22;31489;51.404;5.474;2023-04-15T14:19:29;23.40;41.70
45785;DHT22;31489;51.404;5.474;2023-04-15T14:21:55;23.50;41.00
45785;DHT22;31489;51.404;5.474;2023-04-15T14:24:21;23.50;41.70
45785;DHT22;31489;51.404;5.474;2023-04-15T14:26:46;23.50;41.60
45785;DHT22;31489;51.404;5.474;2023-04-15T14:29:12;23.50;41.50
45785;DHT22;31489;51.404;5.474;2023-04-15T14:31:37;23.60;42.00
45785;DHT22;31489;51.404;5.474;2023-04-15T14:34:03;23.60;42.40
45785;DHT22;31489;51.404;5.474;2023-04-15T14:36:29;23.60;41.80
45785;DHT22;31489;51.404;5.474;2023-04-15T14:38:56;23.50;41.60
45785;DHT22;31489;51.404;5.474;2023-04-15T14:41:23;23.50;41.30
45785;DHT22;31489;51.404;5.474;2023-04-15T14:43:48;23.40;41.60
45785;DHT22;31489;51.404;5.474;2023-04-15T14:46:14;23.30;41.30
45785;DHT22;31489;51.404;5.474;2023-04-15T14:48:40;23.20;41.20
45785;DHT22;31489;51.404;5.474;2023-04-15T14:51:06;23.10;41.20
45785;DHT22;31489;51.404;5.474;2023-04-15T14:53:32;23.00;41.10
45785;DHT22;31489;51.404;5.474;2023-04-15T14:55:57;22.90;40.90
45785;DHT22;31489;51.404;5.474;2023-04-15T14:58:23;22.80;41.20
45785;DHT22;31489;51.404;5.474;2023-04-15T15:00:49;22.70;42.10
45785;DHT22;31489;51.404;5.474;2023-04-15T15:03:15;22.60;42.10
45785;DHT22;31489;51.404;5.474;2023-04-15T15:05:42;22.60;41.50
45785;DHT22;31489;51.404;5.474;2023-04-15T15:08:08;22.60;42.20
45785;DHT22;31489;51.404;5.474;2023-04-15T15:10:35;22.60;41.90
45785;DHT22;31489;51.404;5.474;2023-04-15T15:13:02;22.60;41.70
45785;DHT22;31489;51.404;5.474;2023-04-15T15:15:28;22.50;41.30
45785;DHT22;31489;51.404;5.474;2023-04-15T15:17:54;22.40;40.90
45785;DHT22;31489;51.404;5.474;2023-04-15T15:20:20;22.40;40.70
45785;DHT22;31489;51.404;5.474;2023-04-15T15:22:46;22.20;40.80
45785;DHT22;31489;51.404;5.474;2023-04-15T15:25:11;22.00;41.00
45785;DHT22;31489;51.404;5.474;2023-04-15T15:27:37;21.80;41.40
45785;DHT22;31489;51.404;5.474;2023-04-15T15:30:03;21.70;41.60
45785;DHT22;31489;51.404;5.474;2023-04-15T15:32:29;21.50;41.30
45785;DHT22;31489;51.404;5.474;2023-04-15T15:34:54;21.30;42.00
45785;DHT22;31489;51.404;5.474;2023-04-15T15:37:20;21.20;42.50
45785;DHT22;31489;51.404;5.474;2023-04-15T15:39:46;21.20;43.10
45785;DHT22;31489;51.404;5.474;2023-04-15T15:42:12;21.10;42.60
45785;DHT22;31489;51.404;5.474;2023-04-15T15:44:37;21.10;42.90